Time;durP1;ratioP1;P1;durP2;ratioP2;P2;SDS_P1;SDS_P2;PMS_P1;PMS_P2;Temp;Humidity;BMP_temperature;BMP_pressure;BME280_temperature;BME280_humidity;BME280_pressure;Samples;Min_cycle;Max_cycle;Signal;HPM_P1;HPM_P2
2022/01/08 00:02:50;;;;;;;24.20;10.77;;;;;;;;;;6182851;23;20260;-90
2022/01/08 00:05:57;;;;;;;23.67;10.40;;;;;;;;;;6183106;23;20176;-91
2022/01/08 00:09:03;;;;;;;24.37;10.00;;;;;;;;;;6184766;23;20271;-90
2022/01/08 00:12:09;;;;;;;19.80;9.40;;;;;;;;;;6183804;23;20179;-90
2022/01/08 00:15:15;;;;;;;20.27;9.40;;;;;;;;;;6185220;23;20490;-91
2022/01/08 00:18:20;;;;;;;18.30;9.20;;;;;;;;;;6184317;23;20255;-91
2022/01/08 00:21:29;;;;;;;21.37;10.30;;;;;;;;;;6183088;23;20195;-90
2022/01/08 00:24:36;;;;;;;19.87;10.03;;;;;;;;;;6183351;23;20208;-90
2022/01/08 00:27:41;;;;;;;18.77;9.13;;;;;;;;;;6185812;23;20188;-89
2022/01/08 00:30:48;;;;;;;20.23;10.40;;;;;;;;;;6182400;23;20188;-90
2022/01/08 00:33:53;;;;;;;20.47;10.37;;;;;;;;;;6179856;23;20588;-89
2022/01/08 00:36:59;;;;;;;17.80;9.87;;;;;;;;;;6184536;23;20172;-91
2022/01/08 00:40:06;;;;;;;21.00;10.27;;;;;;;;;;6185149;23;20180;-91
2022/01/08 00:43:11;;;;;;;25.20;10.40;;;;;;;;;;6171330;23;20196;-90
2022/01/08 00:46:16;;;;;;;21.23;10.80;;;;;;;;;;6171718;23;20164;-91
2022/01/08 00:49:24;;;;;;;20.03;10.13;;;;;;;;;;6172324;23;20253;-91
2022/01/08 00:52:30;;;;;;;21.47;9.93;;;;;;;;;;6173842;23;20171;-90
2022/01/08 00:55:36;;;;;;;20.80;9.93;;;;;;;;;;6173315;23;20221;-89
2022/01/08 00:58:42;;;;;;;21.53;10.27;;;;;;;;;;6169565;23;20172;-90
2022/01/08 01:01:47;;;;;;;23.37;10.93;;;;;;;;;;6170282;23;20156;-90
2022/01/08 01:04:52;;;;;;;22.67;10.97;;;;;;;;;;6171307;23;20172;-89
2022/01/08 01:07:57;;;;;;;20.17;10.53;;;;;;;;;;6168735;23;20187;-88
2022/01/08 01:11:04;;;;;;;22.37;10.27;;;;;;;;;;6168126;23;20188;-90
2022/01/08 01:14:09;;;;;;;22.47;10.70;;;;;;;;;;6168117;23;20177;-91
2022/01/08 01:17:14;;;;;;;23.23;10.70;;;;;;;;;;6170472;23;20216;-89
2022/01/08 01:20:20;;;;;;;19.20;9.80;;;;;;;;;;6172108;23;20226;-90
2022/01/08 01:23:31;;;;;;;22.63;10.50;;;;;;;;;;6172162;23;20196;-89
2022/01/08 01:26:43;;;;;;;23.17;10.50;;;;;;;;;;6172497;23;20157;-90
2022/01/08 01:29:54;;;;;;;21.33;10.07;;;;;;;;;;6172850;23;20196;-91
2022/01/08 01:43:27;;;;;;;23.07;11.13;;;;;;;;;;6174586;23;20278;-91
2022/01/08 01:49:56;;;;;;;22.70;10.53;;;;;;;;;;6171129;23;20236;-90
2022/01/08 01:53:01;;;;;;;16.37;9.30;;;;;;;;;;6170421;23;20165;-91
2022/01/08 01:56:06;;;;;;;20.20;11.00;;;;;;;;;;6171183;23;20149;-90
2022/01/08 01:59:14;;;;;;;16.63;9.43;;;;;;;;;;6173638;23;20171;-90
2022/01/08 02:02:19;;;;;;;17.40;9.53;;;;;;;;;;6173650;23;20168;-91
2022/01/08 02:05:25;;;;;;;18.87;9.57;;;;;;;;;;6172781;23;20156;-91
2022/01/08 02:08:30;;;;;;;17.77;9.97;;;;;;;;;;6174029;23;20168;-90
2022/01/08 02:11:35;;;;;;;21.33;10.47;;;;;;;;;;6174698;23;20196;-91
2022/01/08 02:14:42;;;;;;;18.50;9.27;;;;;;;;;;6174392;23;20169;-91
2022/01/08 02:17:47;;;;;;;18.73;10.00;;;;;;;;;;6173950;23;20172;-90
2022/01/08 02:20:54;;;;;;;17.07;9.17;;;;;;;;;;6173466;23;20172;-91
2022/01/08 02:23:59;;;;;;;15.77;9.03;;;;;;;;;;6173030;23;20181;-91
2022/01/08 02:27:05;;;;;;;16.43;8.77;;;;;;;;;;6172420;23;20172;-92
2022/01/08 02:30:10;;;;;;;14.47;8.53;;;;;;;;;;6171696;23;20334;-92
2022/01/08 02:33:15;;;;;;;15.57;8.67;;;;;;;;;;6172364;23;20164;-90
2022/01/08 02:36:22;;;;;;;15.67;8.20;;;;;;;;;;6173504;23;20244;-91
2022/01/08 02:39:30;;;;;;;15.53;8.27;;;;;;;;;;6170216;23;20236;-91
2022/01/08 02:42:39;;;;;;;14.03;8.43;;;;;;;;;;6171339;23;20216;-89
2022/01/08 02:45:45;;;;;;;14.63;7.80;;;;;;;;;;6172004;23;20325;-89
2022/01/08 02:48:50;;;;;;;13.03;7.90;;;;;;;;;;6172250;23;20192;-89
2022/01/08 02:51:57;;;;;;;19.60;8.43;;;;;;;;;;6172151;23;20629;-89
2022/01/08 02:55:02;;;;;;;14.50;7.73;;;;;;;;;;6169418;23;20660;-90
2022/01/08 02:58:07;;;;;;;15.07;7.30;;;;;;;;;;6170930;23;20160;-89
2022/01/08 03:01:12;;;;;;;14.53;7.87;;;;;;;;;;6171018;23;20171;-90
2022/01/08 03:04:17;;;;;;;16.43;7.57;;;;;;;;;;6171863;23;20242;-90
2022/01/08 03:07:24;;;;;;;18.73;8.47;;;;;;;;;;6171118;23;20172;-90
2022/01/08 03:10:29;;;;;;;20.13;8.63;;;;;;;;;;6168157;23;20196;-90
2022/01/08 03:17:24;;;;;;;13.87;7.77;;;;;;;;;;6169866;23;20479;-90
2022/01/08 03:20:29;;;;;;;15.73;8.50;;;;;;;;;;6170102;23;20228;-90
2022/01/08 03:23:40;;;;;;;17.30;8.67;;;;;;;;;;6167879;23;20172;-91
2022/01/08 03:26:45;;;;;;;17.10;8.00;;;;;;;;;;6170488;23;20262;-91
2022/01/08 03:29:50;;;;;;;16.03;8.17;;;;;;;;;;6168686;23;20200;-90
2022/01/08 03:32:55;;;;;;;14.57;8.20;;;;;;;;;;6169065;23;20735;-90
2022/01/08 03:36:00;;;;;;;15.67;8.63;;;;;;;;;;6167902;23;20188;-90
2022/01/08 03:39:07;;;;;;;17.87;9.20;;;;;;;;;;6170524;23;20173;-90
2022/01/08 03:42:12;;;;;;;18.87;9.43;;;;;;;;;;6168392;23;20184;-90
2022/01/08 03:45:17;;;;;;;19.13;9.07;;;;;;;;;;6172172;23;20176;-90
2022/01/08 03:48:29;;;;;;;15.77;8.13;;;;;;;;;;6171506;23;20173;-90
2022/01/08 03:51:34;;;;;;;18.77;8.70;;;;;;;;;;6172349;23;20188;-90
2022/01/08 03:54:40;;;;;;;14.33;8.73;;;;;;;;;;6171390;23;20229;-91
2022/01/08 03:57:45;;;;;;;17.63;9.53;;;;;;;;;;6171820;23;20197;-91
2022/01/08 04:00:50;;;;;;;18.57;8.60;;;;;;;;;;6173849;23;20171;-90
2022/01/08 04:03:56;;;;;;;16.47;8.60;;;;;;;;;;6171031;23;20168;-90
2022/01/08 04:07:02;;;;;;;18.87;9.47;;;;;;;;;;6170695;23;20172;-90
2022/01/08 04:10:09;;;;;;;22.47;9.23;;;;;;;;;;6171407;23;20196;-89
2022/01/08 04:13:18;;;;;;;19.73;10.00;;;;;;;;;;6171100;23;20172;-91
2022/01/08 04:16:28;;;;;;;17.40;9.67;;;;;;;;;;6172612;23;20181;-89
2022/01/08 04:19:33;;;;;;;19.73;10.47;;;;;;;;;;6172614;23;20168;-90
2022/01/08 04:22:39;;;;;;;19.27;10.23;;;;;;;;;;6171779;23;20168;-90
2022/01/08 04:25:46;;;;;;;22.27;10.80;;;;;;;;;;6172004;23;20197;-91
2022/01/08 04:28:52;;;;;;;22.43;11.50;;;;;;;;;;6171487;23;20156;-90
2022/01/08 04:31:58;;;;;;;20.33;10.33;;;;;;;;;;6170942;23;20168;-89
2022/01/08 04:35:04;;;;;;;20.70;10.67;;;;;;;;;;6170326;23;20216;-91
2022/01/08 04:38:11;;;;;;;19.87;10.53;;;;;;;;;;6171070;23;20160;-91
2022/01/08 04:41:18;;;;;;;22.77;11.10;;;;;;;;;;6173012;23;20501;-89
2022/01/08 04:44:23;;;;;;;20.80;10.30;;;;;;;;;;6181748;23;20164;-91
2022/01/08 04:47:29;;;;;;;19.47;10.50;;;;;;;;;;6183348;23;20163;-90
2022/01/08 04:50:35;;;;;;;18.50;9.47;;;;;;;;;;6184766;23;20259;-91
2022/01/08 04:53:40;;;;;;;18.67;9.77;;;;;;;;;;6183834;23;20232;-90
2022/01/08 04:56:46;;;;;;;19.70;9.50;;;;;;;;;;6184079;23;20171;-91
2022/01/08 04:59:51;;;;;;;18.60;9.10;;;;;;;;;;6182419;23;20243;-90
2022/01/08 05:03:05;;;;;;;16.67;8.57;;;;;;;;;;6183633;23;20163;-89
2022/01/08 05:06:10;;;;;;;19.63;9.50;;;;;;;;;;6183215;23;20204;-91
2022/01/08 05:09:22;;;;;;;19.50;8.30;;;;;;;;;;6183067;23;20180;-90
2022/01/08 05:12:33;;;;;;;18.77;9.10;;;;;;;;;;6182927;23;20176;-90
2022/01/08 05:15:39;;;;;;;17.77;8.37;;;;;;;;;;6184094;23;20196;-90
2022/01/08 05:18:44;;;;;;;18.20;8.27;;;;;;;;;;6185029;23;20245;-90
2022/01/08 05:21:55;;;;;;;15.70;7.80;;;;;;;;;;6181953;23;20167;-91
2022/01/08 05:24:59;;;;;;;17.93;8.37;;;;;;;;;;6182858;23;20168;-90
2022/01/08 05:28:06;;;;;;;15.93;7.97;;;;;;;;;;6182327;23;20631;-89
2022/01/08 05:31:11;;;;;;;21.17;8.57;;;;;;;;;;6180857;23;20197;-90
2022/01/08 05:34:16;;;;;;;18.80;8.53;;;;;;;;;;6181162;23;20188;-88
2022/01/08 05:37:21;;;;;;;17.77;8.17;;;;;;;;;;6179430;23;20167;-90
2022/01/08 05:40:27;;;;;;;17.07;8.40;;;;;;;;;;6182133;23;20176;-89
2022/01/08 05:43:33;;;;;;;17.20;8.80;;;;;;;;;;6150738;23;20177;-90
2022/01/08 05:46:39;;;;;;;16.30;7.87;;;;;;;;;;6153200;23;20168;-89
2022/01/08 05:49:44;;;;;;;19.13;7.83;;;;;;;;;;6151158;23;20176;-90
2022/01/08 05:52:49;;;;;;;17.00;7.77;;;;;;;;;;6152506;23;20169;-89
2022/01/08 05:55:54;;;;;;;19.67;8.50;;;;;;;;;;6151536;23;20254;-91
2022/01/08 05:59:01;;;;;;;18.03;8.20;;;;;;;;;;6152217;23;20173;-90
2022/01/08 06:02:08;;;;;;;20.10;9.30;;;;;;;;;;6151983;23;20226;-90
2022/01/08 06:05:13;;;;;;;21.77;9.73;;;;;;;;;;6152544;23;20156;-89
2022/01/08 06:08:19;;;;;;;23.63;10.57;;;;;;;;;;6155910;23;20246;-91
2022/01/08 06:11:24;;;;;;;25.80;11.10;;;;;;;;;;6151944;23;20306;-89
2022/01/08 06:14:30;;;;;;;26.60;10.13;;;;;;;;;;6154600;23;20168;-89
2022/01/08 06:17:35;;;;;;;24.23;10.77;;;;;;;;;;6154646;23;20176;-90
2022/01/08 06:20:40;;;;;;;29.03;10.73;;;;;;;;;;6152463;23;20184;-90
2022/01/08 06:23:45;;;;;;;23.67;10.00;;;;;;;;;;6153392;23;20239;-88
2022/01/08 06:26:50;;;;;;;28.27;12.53;;;;;;;;;;6153863;23;20164;-91
2022/01/08 06:29:57;;;;;;;35.23;15.70;;;;;;;;;;6153722;23;20192;-90
2022/01/08 06:33:02;;;;;;;34.00;14.97;;;;;;;;;;6154565;23;20172;-90
2022/01/08 06:36:07;;;;;;;28.23;12.27;;;;;;;;;;6154265;23;20171;-89
2022/01/08 06:39:12;;;;;;;34.60;13.00;;;;;;;;;;6154715;23;20148;-88
2022/01/08 06:42:17;;;;;;;41.37;14.10;;;;;;;;;;6170030;23;20198;-90
2022/01/08 06:45:26;;;;;;;36.60;13.60;;;;;;;;;;6187016;23;20215;-90
2022/01/08 06:48:31;;;;;;;32.33;13.20;;;;;;;;;;6184538;23;20195;-90
2022/01/08 06:51:35;;;;;;;37.20;14.63;;;;;;;;;;6183223;23;20195;-91
2022/01/08 06:54:41;;;;;;;34.07;13.10;;;;;;;;;;6183293;23;20168;-90
2022/01/08 06:57:46;;;;;;;35.50;13.23;;;;;;;;;;6183858;23;20181;-91
2022/01/08 07:00:53;;;;;;;35.83;13.70;;;;;;;;;;6184446;23;20670;-90
2022/01/08 07:03:58;;;;;;;37.40;13.33;;;;;;;;;;6184937;23;20167;-90
2022/01/08 07:07:03;;;;;;;34.47;13.27;;;;;;;;;;6181282;23;20217;-90
2022/01/08 07:10:08;;;;;;;35.63;13.93;;;;;;;;;;6182100;23;20221;-90
2022/01/08 07:13:14;;;;;;;39.73;14.30;;;;;;;;;;6183120;23;20994;-89
2022/01/08 07:16:23;;;;;;;37.57;14.53;;;;;;;;;;6182915;23;20168;-90
2022/01/08 07:19:28;;;;;;;34.67;13.97;;;;;;;;;;6182241;23;20171;-91
2022/01/08 07:22:33;;;;;;;42.33;15.30;;;;;;;;;;6183195;23;20167;-90
2022/01/08 07:25:40;;;;;;;37.90;13.87;;;;;;;;;;6184291;23;20520;-88
2022/01/08 07:28:45;;;;;;;40.50;15.43;;;;;;;;;;6184437;23;20172;-90
2022/01/08 07:31:52;;;;;;;40.23;15.77;;;;;;;;;;6184436;23;20206;-89
2022/01/08 07:35:00;;;;;;;42.03;15.00;;;;;;;;;;6183315;23;20619;-89
2022/01/08 07:38:05;;;;;;;36.07;13.40;;;;;;;;;;6182618;23;20168;-89
2022/01/08 07:41:11;;;;;;;41.20;15.00;;;;;;;;;;6181999;23;20236;-90
2022/01/08 07:44:16;;;;;;;38.03;13.37;;;;;;;;;;6189419;23;20188;-93
2022/01/08 07:47:26;;;;;;;37.10;13.93;;;;;;;;;;6186493;23;20168;-89
2022/01/08 07:50:31;;;;;;;35.17;13.43;;;;;;;;;;6185410;23;20259;-90
2022/01/08 07:53:36;;;;;;;37.93;12.50;;;;;;;;;;6184561;23;20220;-90
2022/01/08 07:56:42;;;;;;;39.83;14.20;;;;;;;;;;6184590;23;20164;-90
2022/01/08 07:59:47;;;;;;;35.97;12.63;;;;;;;;;;6185499;23;20204;-90
2022/01/08 08:02:54;;;;;;;37.70;13.27;;;;;;;;;;6184269;23;20172;-90
2022/01/08 08:06:01;;;;;;;35.30;12.90;;;;;;;;;;6185618;23;20152;-91
2022/01/08 08:09:06;;;;;;;35.73;13.67;;;;;;;;;;6185070;23;20151;-90
2022/01/08 08:12:11;;;;;;;32.80;13.00;;;;;;;;;;6183766;23;20195;-90
2022/01/08 08:15:19;;;;;;;34.63;12.93;;;;;;;;;;6184478;23;20218;-90
2022/01/08 08:18:38;;;;;;;32.97;12.20;;;;;;;;;;6184657;23;20170;-90
2022/01/08 08:21:43;;;;;;;33.33;11.30;;;;;;;;;;6183819;23;20300;-89
2022/01/08 08:24:48;;;;;;;30.10;11.80;;;;;;;;;;6181949;23;20175;-91
2022/01/08 08:27:55;;;;;;;29.30;12.33;;;;;;;;;;6182827;23;20164;-89
2022/01/08 08:31:00;;;;;;;29.67;11.50;;;;;;;;;;6182481;23;20175;-89
2022/01/08 08:34:16;;;;;;;29.60;11.70;;;;;;;;;;6182164;23;20176;-90
2022/01/08 08:37:21;;;;;;;30.63;12.13;;;;;;;;;;6183675;23;20172;-89
2022/01/08 08:40:26;;;;;;;31.93;12.70;;;;;;;;;;6184068;23;20175;-91
2022/01/08 08:43:31;;;;;;;30.00;11.90;;;;;;;;;;6153703;23;20258;-90
2022/01/08 08:46:36;;;;;;;26.80;11.03;;;;;;;;;;6152644;23;20168;-90
2022/01/08 08:49:43;;;;;;;18.90;7.90;;;;;;;;;;6152658;23;20188;-90
2022/01/08 08:52:48;;;;;;;17.93;8.30;;;;;;;;;;6154315;23;20169;-89
2022/01/08 08:55:53;;;;;;;24.97;9.63;;;;;;;;;;6152538;23;20168;-91
2022/01/08 08:59:01;;;;;;;28.53;11.20;;;;;;;;;;6154120;23;20709;-91
2022/01/08 09:02:07;;;;;;;26.50;9.77;;;;;;;;;;6153630;23;20306;-88
2022/01/08 09:05:14;;;;;;;25.00;10.20;;;;;;;;;;6154572;23;20167;-90
2022/01/08 09:08:19;;;;;;;27.33;10.77;;;;;;;;;;6155927;23;20280;-90
2022/01/08 09:11:25;;;;;;;30.00;11.27;;;;;;;;;;6155876;23;20192;-90
2022/01/08 09:14:35;;;;;;;28.83;9.93;;;;;;;;;;6154813;23;20160;-91
2022/01/08 09:17:41;;;;;;;25.13;10.67;;;;;;;;;;6154898;23;20566;-91
2022/01/08 09:20:48;;;;;;;25.13;10.07;;;;;;;;;;6154213;23;20172;-90
2022/01/08 09:23:53;;;;;;;22.67;10.10;;;;;;;;;;6153608;23;20175;-89
2022/01/08 09:26:58;;;;;;;26.80;10.17;;;;;;;;;;6152322;23;20236;-90
2022/01/08 09:30:05;;;;;;;23.30;7.90;;;;;;;;;;6153150;23;20226;-87
2022/01/08 09:33:09;;;;;;;27.17;10.20;;;;;;;;;;6152871;23;20628;-89
2022/01/08 09:36:16;;;;;;;31.77;11.30;;;;;;;;;;6152987;23;20270;-92
2022/01/08 09:39:21;;;;;;;27.60;10.27;;;;;;;;;;6155179;23;20177;-90
2022/01/08 09:42:27;;;;;;;28.93;10.63;;;;;;;;;;6171424;23;20241;-91
2022/01/08 09:45:32;;;;;;;30.07;10.37;;;;;;;;;;6181444;23;20172;-91
2022/01/08 10:18:36;;;;;;;23.73;8.43;;;;;;;;;;6155774;23;20152;-90
2022/01/08 10:21:44;;;;;;;16.93;6.67;;;;;;;;;;6155643;23;20208;-90
2022/01/08 10:25:10;;;;;;;16.27;6.40;;;;;;;;;;6157125;23;20231;-90
2022/01/08 10:28:15;;;;;;;14.47;6.67;;;;;;;;;;6158272;23;20168;-90
2022/01/08 10:31:23;;;;;;;17.77;6.77;;;;;;;;;;6156147;23;20196;-91
2022/01/08 10:34:30;;;;;;;13.50;5.17;;;;;;;;;;6154392;23;20209;-90
2022/01/08 10:37:52;;;;;;;17.70;6.33;;;;;;;;;;6155029;23;20164;-91
2022/01/08 10:40:58;;;;;;;14.43;5.43;;;;;;;;;;6154297;23;20561;-91
2022/01/08 10:44:11;;;;;;;12.00;5.47;;;;;;;;;;6155238;23;20180;-90
2022/01/08 10:47:19;;;;;;;11.77;5.17;;;;;;;;;;6155463;23;20180;-90
2022/01/08 10:50:26;;;;;;;13.07;5.80;;;;;;;;;;6154765;23;20168;-92
2022/01/08 10:53:51;;;;;;;11.67;5.70;;;;;;;;;;6155755;23;20158;-90
2022/01/08 10:56:59;;;;;;;15.67;4.97;;;;;;;;;;6155752;23;20173;-90
2022/01/08 11:00:06;;;;;;;14.77;5.93;;;;;;;;;;6175524;23;20217;-91
2022/01/08 11:03:14;;;;;;;9.07;4.03;;;;;;;;;;6155654;23;20248;-90
2022/01/08 11:06:19;;;;;;;13.67;4.57;;;;;;;;;;6153991;23;20562;-90
2022/01/08 11:09:24;;;;;;;11.03;4.30;;;;;;;;;;6174599;23;20165;-90
2022/01/08 11:12:34;;;;;;;14.63;4.60;;;;;;;;;;6155858;23;20659;-90
2022/01/08 11:15:49;;;;;;;9.17;4.73;;;;;;;;;;6157525;23;20176;-90
2022/01/08 11:18:56;;;;;;;11.90;5.20;;;;;;;;;;6156598;23;20244;-90
2022/01/08 11:22:02;;;;;;;7.80;3.80;;;;;;;;;;6156135;23;20208;-88
2022/01/08 11:25:08;;;;;;;11.63;3.80;;;;;;;;;;6156071;23;20168;-90
2022/01/08 11:28:15;;;;;;;7.97;3.90;;;;;;;;;;6153790;23;20732;-89
2022/01/08 11:31:22;;;;;;;8.50;3.93;;;;;;;;;;6156475;23;20244;-90
2022/01/08 11:34:30;;;;;;;8.63;3.83;;;;;;;;;;6155493;23;20169;-92
2022/01/08 11:37:35;;;;;;;9.13;4.10;;;;;;;;;;6156885;23;20169;-90
2022/01/08 11:40:41;;;;;;;16.40;4.57;;;;;;;;;;6154571;23;20164;-91
2022/01/08 11:43:49;;;;;;;49.20;12.67;;;;;;;;;;6154870;23;20172;-91
2022/01/08 11:46:55;;;;;;;19.43;6.17;;;;;;;;;;6157297;23;20173;-88
2022/01/08 11:50:02;;;;;;;42.03;10.17;;;;;;;;;;6157522;23;20164;-90
2022/01/08 11:53:15;;;;;;;12.83;5.43;;;;;;;;;;6156997;23;20204;-90
2022/01/08 11:56:24;;;;;;;9.23;4.37;;;;;;;;;;6156527;23;20164;-90
2022/01/08 11:59:32;;;;;;;9.20;4.67;;;;;;;;;;6155398;23;20193;-91
2022/01/08 12:02:39;;;;;;;5.50;3.00;;;;;;;;;;6156038;23;20198;-91
2022/01/08 12:05:46;;;;;;;6.53;3.83;;;;;;;;;;6155401;23;20176;-91
2022/01/08 12:09:07;;;;;;;7.07;3.77;;;;;;;;;;6154279;23;20195;-91
2022/01/08 12:12:15;;;;;;;7.87;3.60;;;;;;;;;;6159760;23;20196;-91
2022/01/08 12:15:35;;;;;;;10.60;4.73;;;;;;;;;;6159005;23;20224;-88
2022/01/08 12:18:54;;;;;;;22.20;8.70;;;;;;;;;;6155565;23;20173;-90
2022/01/08 12:22:02;;;;;;;6.60;3.53;;;;;;;;;;6153416;23;20172;-89
2022/01/08 12:25:07;;;;;;;6.37;2.90;;;;;;;;;;6155191;23;20168;-92
2022/01/08 12:28:36;;;;;;;9.50;3.47;;;;;;;;;;6156048;23;20244;-90
2022/01/08 12:31:44;;;;;;;4.13;2.53;;;;;;;;;;6159204;23;20223;-90
2022/01/08 12:34:50;;;;;;;4.37;2.33;;;;;;;;;;6156655;23;20241;-91
2022/01/08 12:37:59;;;;;;;6.30;2.33;;;;;;;;;;6155433;23;20177;-91
2022/01/08 12:41:20;;;;;;;3.53;1.90;;;;;;;;;;6154125;23;20218;-90
2022/01/08 12:44:26;;;;;;;8.67;1.60;;;;;;;;;;6154206;23;20168;-89
2022/01/08 12:47:39;;;;;;;5.40;1.90;;;;;;;;;;6154960;23;20152;-90
2022/01/08 12:50:53;;;;;;;1.70;1.00;;;;;;;;;;6157284;23;20238;-90
2022/01/08 12:54:07;;;;;;;2.63;1.37;;;;;;;;;;6157233;23;20176;-91
2022/01/08 12:57:12;;;;;;;2.67;1.50;;;;;;;;;;6155068;23;20153;-89
2022/01/08 13:00:17;;;;;;;2.33;1.50;;;;;;;;;;6156371;23;20232;-90
2022/01/08 13:03:23;;;;;;;2.43;1.40;;;;;;;;;;6156077;23;20213;-92
2022/01/08 13:06:30;;;;;;;1.23;1.00;;;;;;;;;;6154744;23;20168;-90
2022/01/08 13:09:37;;;;;;;1.63;0.97;;;;;;;;;;6156065;23;20164;-89
2022/01/08 13:16:11;;;;;;;2.50;1.63;;;;;;;;;;6160181;23;20191;-89
2022/01/08 13:19:17;;;;;;;2.93;1.67;;;;;;;;;;6172422;23;20280;-91
2022/01/08 13:22:22;;;;;;;2.93;1.53;;;;;;;;;;6175561;23;20204;-90
2022/01/08 13:25:31;;;;;;;4.03;1.70;;;;;;;;;;6174988;23;20168;-90
2022/01/08 13:28:37;;;;;;;2.83;1.40;;;;;;;;;;6175355;23;20173;-90
2022/01/08 13:43:30;;;;;;;5.43;2.83;;;;;;;;;;6115306;23;20300;-91
2022/01/08 13:46:37;;;;;;;3.87;2.30;;;;;;;;;;6155047;23;20156;-90
2022/01/08 13:49:42;;;;;;;6.10;3.07;;;;;;;;;;6157702;23;20167;-91
2022/01/08 13:52:52;;;;;;;7.57;2.83;;;;;;;;;;6158554;23;20212;-90
2022/01/08 13:56:01;;;;;;;7.90;3.50;;;;;;;;;;6158585;23;20212;-92
2022/01/08 13:59:09;;;;;;;7.87;3.27;;;;;;;;;;6154450;23;20173;-91
2022/01/08 14:02:15;;;;;;;6.57;3.23;;;;;;;;;;6157024;23;20230;-90
2022/01/08 14:05:21;;;;;;;6.87;2.97;;;;;;;;;;6157882;23;20213;-89
2022/01/08 14:08:27;;;;;;;10.27;3.10;;;;;;;;;;6159156;23;20242;-90
2022/01/08 14:11:33;;;;;;;5.67;3.10;;;;;;;;;;6157318;23;20173;-90
2022/01/08 14:14:49;;;;;;;8.97;3.83;;;;;;;;;;6158365;23;20168;-90
2022/01/08 14:17:54;;;;;;;9.37;4.27;;;;;;;;;;6160582;23;20168;-89
2022/01/08 14:21:12;;;;;;;9.20;4.20;;;;;;;;;;6158994;23;20167;-90
2022/01/08 14:24:19;;;;;;;9.40;3.80;;;;;;;;;;6158554;23;20168;-91
2022/01/08 14:27:27;;;;;;;8.70;3.33;;;;;;;;;;6158949;23;20193;-90
2022/01/08 14:30:34;;;;;;;8.83;3.53;;;;;;;;;;6157487;23;20253;-91
2022/01/08 14:33:54;;;;;;;12.60;4.13;;;;;;;;;;6156242;23;20188;-91
2022/01/08 14:37:00;;;;;;;8.60;4.33;;;;;;;;;;6157593;23;20171;-91
2022/01/08 14:40:18;;;;;;;8.80;3.37;;;;;;;;;;6157492;23;20168;-91
2022/01/08 14:43:25;;;;;;;10.80;4.50;;;;;;;;;;6156938;23;20221;-91
2022/01/08 14:46:32;;;;;;;6.83;3.77;;;;;;;;;;6157408;23;20169;-90
2022/01/08 14:49:38;;;;;;;5.73;3.00;;;;;;;;;;6155418;23;20168;-89
2022/01/08 14:52:43;;;;;;;9.77;5.00;;;;;;;;;;6156806;23;20189;-91
2022/01/08 14:55:50;;;;;;;10.33;5.20;;;;;;;;;;6156838;23;20196;-91
2022/01/08 14:58:55;;;;;;;10.60;5.57;;;;;;;;;;6157652;23;20168;-90
2022/01/08 15:02:02;;;;;;;14.67;5.90;;;;;;;;;;6155867;23;20229;-90
2022/01/08 15:05:08;;;;;;;15.07;5.67;;;;;;;;;;6156738;23;20247;-89
2022/01/08 15:08:13;;;;;;;11.33;5.03;;;;;;;;;;6157695;23;20232;-91
2022/01/08 15:11:19;;;;;;;12.10;5.43;;;;;;;;;;6158311;23;20181;-91
2022/01/08 16:35:25;;;;;;;13.07;5.20;;;;;;;;;;6196215;22;1319644;-87
2022/01/08 16:38:30;;;;;;;10.80;5.20;;;;;;;;;;6265402;23;20362;-89
2022/01/08 16:41:36;;;;;;;10.33;5.23;;;;;;;;;;6263743;22;20238;-90
2022/01/08 16:44:42;;;;;;;11.57;4.70;;;;;;;;;;6262918;23;20243;-91
2022/01/08 16:47:47;;;;;;;15.43;5.10;;;;;;;;;;6263794;22;20158;-92
2022/01/08 16:50:55;;;;;;;11.40;4.80;;;;;;;;;;6264425;23;20553;-89
2022/01/08 16:54:00;;;;;;;11.37;4.73;;;;;;;;;;6263517;22;20155;-91
2022/01/08 16:57:06;;;;;;;13.27;5.53;;;;;;;;;;6264982;22;20193;-90
2022/01/08 17:00:13;;;;;;;11.33;5.03;;;;;;;;;;6264748;23;20158;-90
2022/01/08 17:03:19;;;;;;;12.27;6.30;;;;;;;;;;6262015;22;20170;-91
2022/01/08 17:06:25;;;;;;;11.63;5.10;;;;;;;;;;6264813;23;20235;-88
2022/01/08 17:09:30;;;;;;;16.03;6.70;;;;;;;;;;6262254;22;20167;-89
2022/01/08 17:12:47;;;;;;;15.80;6.90;;;;;;;;;;6261525;22;20155;-90
2022/01/08 17:19:12;;;;;;;19.73;6.80;;;;;;;;;;6262475;23;20234;-90
2022/01/08 17:22:19;;;;;;;13.87;5.80;;;;;;;;;;6262691;22;20235;-90
2022/01/08 17:25:25;;;;;;;13.13;5.57;;;;;;;;;;6265066;23;20166;-90
2022/01/08 17:28:40;;;;;;;16.03;7.23;;;;;;;;;;6264756;22;20189;-90
2022/01/08 17:31:46;;;;;;;16.27;5.90;;;;;;;;;;6263458;22;20210;-91
2022/01/08 17:34:51;;;;;;;11.53;5.47;;;;;;;;;;6264100;22;20193;-89
2022/01/08 17:38:02;;;;;;;20.03;7.07;;;;;;;;;;6265020;23;20174;-91
2022/01/08 17:41:07;;;;;;;17.17;7.30;;;;;;;;;;6263955;22;20166;-89
2022/01/08 17:44:13;;;;;;;84.47;32.77;;;;;;;;;;6265234;22;20161;-88
2022/01/08 17:47:19;;;;;;;29.67;11.07;;;;;;;;;;6265876;22;20210;-90
2022/01/08 17:50:24;;;;;;;28.03;9.97;;;;;;;;;;6264216;22;20166;-91
2022/01/08 17:53:31;;;;;;;16.50;6.83;;;;;;;;;;6263141;22;20158;-90
2022/01/08 17:56:37;;;;;;;13.30;5.40;;;;;;;;;;6262292;22;20190;-89
2022/01/08 17:59:43;;;;;;;16.97;6.13;;;;;;;;;;6264327;22;20170;-91
2022/01/08 18:02:51;;;;;;;15.23;5.77;;;;;;;;;;6263014;22;20238;-89
2022/01/08 18:05:59;;;;;;;17.70;8.07;;;;;;;;;;6262547;22;20166;-89
2022/01/08 18:09:05;;;;;;;19.70;8.27;;;;;;;;;;6262560;23;20162;-90
2022/01/08 18:12:11;;;;;;;18.57;7.97;;;;;;;;;;6262718;23;20163;-89
2022/01/08 18:15:20;;;;;;;14.20;6.60;;;;;;;;;;6262576;22;20163;-90
2022/01/08 18:18:25;;;;;;;17.67;6.57;;;;;;;;;;6262039;22;20217;-89
2022/01/08 18:21:30;;;;;;;14.13;6.00;;;;;;;;;;6261625;22;20269;-90
2022/01/08 18:24:37;;;;;;;18.40;7.33;;;;;;;;;;6262244;22;20166;-91
2022/01/08 18:27:43;;;;;;;18.90;7.97;;;;;;;;;;6261336;22;20182;-89
2022/01/08 18:30:48;;;;;;;23.97;9.80;;;;;;;;;;6262167;22;20166;-90
2022/01/08 18:33:53;;;;;;;45.67;16.43;;;;;;;;;;6262484;22;20154;-89
2022/01/08 18:36:59;;;;;;;49.13;17.90;;;;;;;;;;6265181;23;20198;-90
2022/01/08 18:40:06;;;;;;;38.60;14.17;;;;;;;;;;6262155;22;20222;-89
2022/01/08 18:43:13;;;;;;;89.10;33.80;;;;;;;;;;6262491;23;20166;-91
2022/01/08 18:46:18;;;;;;;32.77;11.73;;;;;;;;;;6262745;22;20173;-91
2022/01/08 18:49:24;;;;;;;24.33;10.83;;;;;;;;;;6263822;22;20150;-91
2022/01/08 18:52:30;;;;;;;23.30;9.70;;;;;;;;;;6263409;22;20626;-90
2022/01/08 18:56:06;;;;;;;32.83;9.53;;;;;;;;;;6265075;23;20170;-90
2022/01/08 18:59:23;;;;;;;26.13;11.50;;;;;;;;;;6262383;23;20165;-89
2022/01/08 19:02:30;;;;;;;25.93;10.03;;;;;;;;;;6262599;22;20214;-92
2022/01/08 19:05:36;;;;;;;21.60;9.63;;;;;;;;;;6262322;23;20178;-89
2022/01/08 19:08:42;;;;;;;23.13;8.70;;;;;;;;;;6264446;23;20204;-92
2022/01/08 19:11:48;;;;;;;21.93;9.50;;;;;;;;;;6262666;23;20238;-91
2022/01/08 19:14:56;;;;;;;19.40;7.80;;;;;;;;;;6262027;23;20197;-91
2022/01/08 19:18:01;;;;;;;19.07;8.20;;;;;;;;;;6262565;23;20194;-90
2022/01/08 19:21:07;;;;;;;20.50;8.03;;;;;;;;;;6260798;22;20223;-91
2022/01/08 19:24:13;;;;;;;22.30;8.53;;;;;;;;;;6261037;23;20214;-89
2022/01/08 19:27:18;;;;;;;42.87;17.10;;;;;;;;;;6260774;23;20242;-87
2022/01/08 19:30:25;;;;;;;22.30;8.40;;;;;;;;;;6262789;23;20173;-90
2022/01/08 19:33:30;;;;;;;27.50;9.30;;;;;;;;;;6263789;23;20154;-89
2022/01/08 19:36:37;;;;;;;22.03;8.50;;;;;;;;;;6261202;23;20209;-91
2022/01/08 19:39:42;;;;;;;15.17;7.10;;;;;;;;;;6263123;22;20169;-90
2022/01/08 19:42:48;;;;;;;21.40;8.20;;;;;;;;;;6263816;22;20167;-90
2022/01/08 19:45:55;;;;;;;16.70;7.20;;;;;;;;;;6265637;22;20179;-91
2022/01/08 19:49:00;;;;;;;20.80;8.10;;;;;;;;;;6265896;23;20170;-90
2022/01/08 19:52:06;;;;;;;22.27;8.90;;;;;;;;;;6264744;23;20194;-89
2022/01/08 19:55:12;;;;;;;20.67;7.70;;;;;;;;;;6264844;22;20158;-90
2022/01/08 19:58:19;;;;;;;17.00;7.17;;;;;;;;;;6265053;22;20214;-89
2022/01/08 20:01:26;;;;;;;16.57;7.07;;;;;;;;;;6263715;22;20175;-90
2022/01/08 20:04:31;;;;;;;22.33;10.00;;;;;;;;;;6265517;22;20216;-90
2022/01/08 20:07:36;;;;;;;23.67;10.07;;;;;;;;;;6265102;22;20178;-91
2022/01/08 20:10:41;;;;;;;19.43;8.80;;;;;;;;;;6265012;23;20795;-90
2022/01/08 20:13:47;;;;;;;22.90;9.67;;;;;;;;;;6263395;22;20166;-91
2022/01/08 20:16:54;;;;;;;19.60;9.43;;;;;;;;;;6264309;22;20189;-91
2022/01/08 20:19:59;;;;;;;17.57;8.40;;;;;;;;;;6263708;22;20602;-92
2022/01/08 20:23:06;;;;;;;27.60;10.27;;;;;;;;;;6268347;22;20229;-90
2022/01/08 20:26:13;;;;;;;24.47;9.37;;;;;;;;;;6268103;23;20211;-91
2022/01/08 20:29:20;;;;;;;25.20;10.13;;;;;;;;;;6269633;22;20146;-90
2022/01/08 20:32:27;;;;;;;36.13;12.13;;;;;;;;;;6266999;23;20162;-90
2022/01/08 20:35:32;;;;;;;21.40;8.30;;;;;;;;;;6265425;23;20261;-89
2022/01/08 20:38:37;;;;;;;21.07;8.90;;;;;;;;;;6266616;22;20170;-90
2022/01/08 20:41:44;;;;;;;22.43;8.87;;;;;;;;;;6264768;23;20194;-90
2022/01/08 20:44:50;;;;;;;21.27;8.10;;;;;;;;;;6264799;22;20478;-90
2022/01/08 20:47:57;;;;;;;21.23;8.60;;;;;;;;;;6264440;22;20627;-89
2022/01/08 20:51:02;;;;;;;19.23;8.07;;;;;;;;;;6264066;22;20192;-89